createdAt,value
2017-10-29T00:01:11.157Z,96944.41
2017-10-29T00:03:39.437Z,96943.06
2017-10-29T00:06:07.722Z,96923.99
2017-10-29T00:08:36.003Z,96909.03
2017-10-29T00:11:04.288Z,96909.48
2017-10-29T00:13:32.578Z,96913.00
2017-10-29T00:16:00.865Z,96903.27
2017-10-29T00:18:29.158Z,96906.30
2017-10-29T00:20:57.453Z,96896.84
2017-10-29T00:23:25.732Z,96889.38
2017-10-29T00:25:54.113Z,96885.59
2017-10-29T00:28:22.388Z,96881.52
2017-10-29T00:30:50.664Z,96883.92
2017-10-29T00:33:18.944Z,96880.27
2017-10-29T00:35:47.237Z,96870.75
2017-10-29T00:38:15.581Z,96878.13
2017-10-29T00:40:43.904Z,96864.77
2017-10-29T00:43:12.186Z,96857.98
2017-10-29T00:45:40.515Z,96850.39
2017-10-29T00:48:08.798Z,96853.13
2017-10-29T00:50:37.076Z,96856.23
2017-10-29T00:53:05.352Z,96843.10
2017-10-29T00:55:33.641Z,96830.48
2017-10-29T00:58:01.928Z,96838.41
2017-10-29T01:00:30.247Z,96819.23
2017-10-29T01:02:58.537Z,96823.66
2017-10-29T01:05:26.824Z,96815.70
2017-10-29T01:07:55.105Z,96825.78
2017-10-29T01:10:23.383Z,96821.05
2017-10-29T01:12:51.661Z,96821.56
2017-10-29T01:15:19.941Z,96810.55
2017-10-29T01:17:48.224Z,96806.02
2017-10-29T01:20:16.517Z,96796.50
2017-10-29T01:22:44.802Z,96789.46
2017-10-29T01:25:13.123Z,96777.80
2017-10-29T01:27:41.394Z,96771.09
2017-10-29T01:30:09.678Z,96768.41
2017-10-29T01:32:37.957Z,96764.42
2017-10-29T01:35:06.245Z,96752.99
2017-10-29T01:37:34.524Z,96744.28
2017-10-29T01:40:03.030Z,96733.95
2017-10-29T01:42:31.306Z,96729.45
2017-10-29T01:44:59.598Z,96710.55
2017-10-29T01:47:27.872Z,96705.67
2017-10-29T01:49:56.152Z,96692.80
2017-10-29T01:52:24.461Z,96691.02
2017-10-29T01:54:53.501Z,96691.59
2017-10-29T01:57:21.796Z,96672.16
2017-10-29T01:59:50.079Z,96668.39
2017-10-29T02:02:18.370Z,96668.92
2017-10-29T02:04:46.648Z,96668.13
2017-10-29T02:07:15.712Z,96672.33
2017-10-29T02:09:44.004Z,96657.64
2017-10-29T02:12:12.285Z,96654.27
2017-10-29T02:14:40.581Z,96651.23
2017-10-29T02:17:08.865Z,96631.08
2017-10-29T02:19:37.909Z,96643.63
2017-10-29T02:22:06.209Z,96619.34
2017-10-29T02:24:35.473Z,96610.59
2017-10-29T02:27:03.752Z,96609.50
2017-10-29T02:29:32.049Z,96594.99
2017-10-29T02:32:00.328Z,96585.39
2017-10-29T02:34:29.181Z,96595.78
2017-10-29T02:36:57.455Z,96593.13
2017-10-29T02:39:25.748Z,96582.66
2017-10-29T02:41:54.049Z,96576.45
2017-10-29T02:44:22.344Z,96571.37
2017-10-29T02:46:51.438Z,96554.92
2017-10-29T02:49:19.721Z,96569.13
2017-10-29T02:51:48.768Z,96545.12
2017-10-29T02:54:17.046Z,96541.41
2017-10-29T02:56:46.079Z,96530.28
2017-10-29T02:59:14.368Z,96533.27
2017-10-29T03:01:43.416Z,96520.44
2017-10-29T03:04:11.709Z,96529.80
2017-10-29T03:06:39.999Z,96538.28
2017-10-29T03:09:08.281Z,96503.05
2017-10-29T03:11:36.546Z,96512.92
2017-10-29T03:14:05.601Z,96500.97
2017-10-29T03:16:33.884Z,96499.06
2017-10-29T03:19:02.168Z,96519.80
2017-10-29T03:21:30.448Z,96518.93
2017-10-29T03:23:58.732Z,96530.20
2017-10-29T03:26:27.021Z,96532.13
2017-10-29T03:28:55.329Z,96535.89
2017-10-29T03:31:23.605Z,96531.44
2017-10-29T03:33:51.901Z,96526.44
2017-10-29T03:36:20.180Z,96551.04
2017-10-29T03:38:48.464Z,96541.80
2017-10-29T03:41:16.745Z,96531.61
2017-10-29T03:43:45.029Z,96508.00
2017-10-29T03:46:13.320Z,96525.13
2017-10-29T03:48:41.600Z,96520.29
2017-10-29T03:51:09.895Z,96531.45
2017-10-29T03:53:38.185Z,96542.20
2017-10-29T03:56:06.502Z,96521.89
2017-10-29T03:58:34.793Z,96529.05
2017-10-29T04:01:03.088Z,96524.69
2017-10-29T04:03:31.377Z,96532.48
2017-10-29T04:05:59.656Z,96565.86
2017-10-29T04:08:28.700Z,96544.31
2017-10-29T04:10:56.990Z,96540.08
2017-10-29T04:13:25.294Z,96552.29
2017-10-29T04:15:54.351Z,96549.14
2017-10-29T04:18:22.649Z,96585.19
2017-10-29T04:20:50.941Z,96583.83
2017-10-29T04:23:19.226Z,96582.12
2017-10-29T04:25:48.277Z,96576.18
2017-10-29T04:28:16.568Z,96595.41
2017-10-29T04:30:44.865Z,96574.98
2017-10-29T04:33:13.177Z,96589.23
2017-10-29T04:35:41.469Z,96555.75
2017-10-29T04:38:10.761Z,96560.19
2017-10-29T04:40:39.040Z,96568.68
2017-10-29T04:43:07.316Z,96558.64
2017-10-29T04:45:35.587Z,96541.00
2017-10-29T04:48:03.867Z,96573.27
2017-10-29T04:50:32.156Z,96573.02
2017-10-29T04:53:00.437Z,96604.72
2017-10-29T04:55:28.721Z,96599.14
2017-10-29T04:57:57.009Z,96624.80
2017-10-29T05:00:25.309Z,96634.56
2017-10-29T05:02:53.600Z,96636.97
2017-10-29T05:05:22.645Z,96626.73
2017-10-29T05:07:50.928Z,96639.92
2017-10-29T05:10:19.222Z,96632.98
2017-10-29T05:12:47.514Z,96644.09
2017-10-29T05:15:15.800Z,96633.41
2017-10-29T05:17:44.876Z,96645.46
2017-10-29T05:20:13.157Z,96644.55
2017-10-29T05:22:42.212Z,96633.17
2017-10-29T05:25:10.488Z,96653.14
2017-10-29T05:27:38.771Z,96680.36
2017-10-29T05:30:07.053Z,96704.15
2017-10-29T05:32:35.331Z,96695.73
2017-10-29T05:35:03.616Z,96708.00
2017-10-29T05:37:31.898Z,96711.45
2017-10-29T05:40:00.180Z,96707.09
2017-10-29T05:42:29.229Z,96734.27
2017-10-29T05:44:57.508Z,96737.75
2017-10-29T05:47:25.803Z,96738.59
2017-10-29T05:49:54.095Z,96762.80
2017-10-29T05:52:22.380Z,96749.89
2017-10-29T05:54:51.429Z,96749.11
2017-10-29T05:57:19.712Z,96733.37
2017-10-29T05:59:47.991Z,96754.25
2017-10-29T06:02:16.271Z,96753.56
2017-10-29T06:04:44.567Z,96766.74
2017-10-29T06:07:12.856Z,96781.93
2017-10-29T06:09:41.148Z,96789.98
2017-10-29T06:12:09.432Z,96803.03
2017-10-29T06:14:37.727Z,96826.91
2017-10-29T06:17:06.016Z,96828.64
2017-10-29T06:19:34.303Z,96857.17
2017-10-29T06:22:03.445Z,96864.34
2017-10-29T06:24:31.720Z,96849.05
2017-10-29T06:27:00.010Z,96891.86
2017-10-29T06:29:28.287Z,96879.63
2017-10-29T06:31:56.577Z,96922.14
2017-10-29T06:34:24.861Z,96896.30
2017-10-29T06:36:53.148Z,96894.19
2017-10-29T06:39:21.428Z,96888.38
2017-10-29T06:41:49.705Z,96905.70
2017-10-29T06:44:17.992Z,96903.82
2017-10-29T06:46:47.424Z,96888.97
2017-10-29T06:49:16.454Z,96901.30
2017-10-29T06:51:44.726Z,96927.53
2017-10-29T06:54:12.984Z,96927.02
2017-10-29T06:56:43.515Z,96943.36
2017-10-29T06:59:11.790Z,96928.37
2017-10-29T07:01:40.085Z,96976.72
2017-10-29T07:04:08.366Z,96995.41
2017-10-29T07:06:36.648Z,96992.13
2017-10-29T07:09:04.928Z,97007.52
2017-10-29T07:11:33.201Z,97019.46
2017-10-29T07:14:01.470Z,97028.61
2017-10-29T07:16:29.755Z,97038.94
2017-10-29T07:18:58.021Z,97033.72
2017-10-29T07:21:26.301Z,97050.02
2017-10-29T07:23:54.592Z,97072.23
2017-10-29T07:26:22.872Z,97057.38
2017-10-29T07:28:51.151Z,97085.88
2017-10-29T07:31:19.436Z,97073.59
2017-10-29T07:33:47.709Z,97083.72
2017-10-29T07:36:15.992Z,97097.77
2017-10-29T07:38:44.273Z,97104.74
2017-10-29T07:41:12.593Z,97116.34
2017-10-29T07:43:40.882Z,97125.95
2017-10-29T07:46:09.189Z,97129.65
2017-10-29T07:48:37.496Z,97146.62
2017-10-29T07:51:05.777Z,97156.23
2017-10-29T07:53:34.824Z,97159.48
2017-10-29T07:56:03.115Z,97150.36
2017-10-29T07:58:31.411Z,97158.05
2017-10-29T08:00:59.696Z,97159.25
2017-10-29T08:03:27.980Z,97174.55
2017-10-29T08:05:56.302Z,97185.15
2017-10-29T08:08:24.576Z,97182.88
2017-10-29T08:10:52.852Z,97188.02
2017-10-29T08:13:21.182Z,97192.94
2017-10-29T08:15:49.461Z,97192.92
2017-10-29T08:18:17.753Z,97190.78
2017-10-29T08:20:46.812Z,97205.09
2017-10-29T08:23:15.088Z,97199.31
2017-10-29T08:25:43.372Z,97215.03
2017-10-29T08:28:11.668Z,97212.46
2017-10-29T08:30:39.972Z,97244.28
2017-10-29T08:33:09.218Z,97233.98
2017-10-29T08:35:37.492Z,97253.54
2017-10-29T08:38:05.781Z,97246.02
2017-10-29T08:40:34.057Z,97264.66
2017-10-29T08:43:02.331Z,97244.59
2017-10-29T08:45:30.610Z,97242.55
2017-10-29T08:47:58.894Z,97243.97
2017-10-29T08:50:27.176Z,97261.58
2017-10-29T08:52:55.470Z,97246.81
2017-10-29T08:55:23.739Z,97251.40
2017-10-29T08:57:52.028Z,97268.30
2017-10-29T09:00:20.302Z,97270.73
2017-10-29T09:02:48.593Z,97285.39
2017-10-29T09:05:17.334Z,97299.23
2017-10-29T09:07:45.614Z,97300.58
2017-10-29T09:10:13.883Z,97295.41
2017-10-29T09:12:42.171Z,97309.73
2017-10-29T09:15:11.208Z,97321.02
2017-10-29T09:17:39.484Z,97340.37
2017-10-29T09:20:07.766Z,97319.86
2017-10-29T09:22:36.049Z,97326.45
2017-10-29T09:25:04.333Z,97333.39
2017-10-29T09:27:32.639Z,97349.34
2017-10-29T09:30:01.693Z,97341.13
2017-10-29T09:32:29.988Z,97347.44
2017-10-29T09:34:58.380Z,97331.69
2017-10-29T09:37:26.669Z,97361.63
2017-10-29T09:39:55.740Z,97369.45
2017-10-29T09:42:24.071Z,97379.77
2017-10-29T09:44:52.384Z,97378.55
2017-10-29T09:47:20.681Z,97369.31
2017-10-29T09:49:49.316Z,97374.13
2017-10-29T09:52:17.713Z,97386.64
2017-10-29T09:54:46.360Z,97370.81
2017-10-29T09:57:14.650Z,97381.35
2017-10-29T09:59:42.956Z,97398.50
2017-10-29T10:02:11.246Z,97392.34
2017-10-29T10:04:39.522Z,97402.23
2017-10-29T10:07:07.837Z,97392.92
2017-10-29T10:09:36.887Z,97396.11
2017-10-29T10:12:05.188Z,97399.73
2017-10-29T10:14:33.495Z,97406.98
2017-10-29T10:17:01.789Z,97405.08
2017-10-29T10:19:30.120Z,97412.41
2017-10-29T10:21:58.423Z,97409.30
2017-10-29T10:24:26.737Z,97399.52
2017-10-29T10:26:55.069Z,97417.97
2017-10-29T10:29:24.147Z,97399.41
2017-10-29T10:31:52.459Z,97410.69
2017-10-29T10:34:20.771Z,97431.91
2017-10-29T10:36:49.091Z,97399.23
2017-10-29T10:39:18.157Z,97431.44
2017-10-29T10:41:46.492Z,97413.77
2017-10-29T10:44:14.847Z,97413.33
2017-10-29T10:46:43.132Z,97422.96
2017-10-29T10:49:11.420Z,97432.63
2017-10-29T10:51:39.696Z,97416.47
2017-10-29T10:54:07.972Z,97437.05
2017-10-29T10:56:36.976Z,97455.91
2017-10-29T10:59:05.359Z,97462.52
2017-10-29T11:01:33.681Z,97468.42
2017-10-29T11:04:02.728Z,97465.84
2017-10-29T11:06:32.029Z,97524.66
2017-10-29T11:09:00.356Z,97476.45
2017-10-29T11:11:29.682Z,97491.25
2017-10-29T11:13:58.024Z,97496.42
2017-10-29T11:16:26.396Z,97472.95
2017-10-29T11:18:54.750Z,97482.33
2017-10-29T11:21:23.069Z,97478.06
2017-10-29T11:23:51.397Z,97490.03
2017-10-29T11:26:19.725Z,97484.45
2017-10-29T11:28:48.092Z,97490.84
2017-10-29T11:31:16.398Z,97477.13
2017-10-29T11:33:44.777Z,97481.06
2017-10-29T11:36:13.155Z,97487.97
2017-10-29T11:38:41.588Z,97492.63
2017-10-29T11:41:10.034Z,97477.80
2017-10-29T11:43:38.597Z,97456.81
2017-10-29T11:46:07.811Z,97484.20
2017-10-29T11:48:36.174Z,97489.11
2017-10-29T11:51:04.506Z,97501.83
2017-10-29T11:53:34.209Z,97494.01
2017-10-29T11:56:02.525Z,97530.00
2017-10-29T11:58:31.202Z,97503.63
2017-10-29T12:00:59.729Z,97501.05
2017-10-29T12:03:28.109Z,97505.03
2017-10-29T12:05:56.542Z,97494.57
2017-10-29T12:08:24.929Z,97504.20
2017-10-29T12:10:53.405Z,97511.38
2017-10-29T12:13:21.913Z,97544.95
2017-10-29T12:15:50.209Z,97519.42
2017-10-29T12:18:18.886Z,97541.00
2017-10-29T12:20:47.314Z,97550.62
2017-10-29T12:23:15.759Z,97531.87
2017-10-29T12:25:44.133Z,97537.16
2017-10-29T12:28:12.540Z,97547.78
2017-10-29T12:30:40.954Z,97552.29
2017-10-29T12:33:09.375Z,97555.30
2017-10-29T12:35:37.705Z,97569.66
2017-10-29T12:38:07.356Z,97561.97
2017-10-29T12:40:35.639Z,97560.19
2017-10-29T12:43:04.031Z,97561.55
2017-10-29T12:45:32.617Z,97570.85
2017-10-29T12:48:01.928Z,97563.36
2017-10-29T12:50:30.469Z,97569.39
2017-10-29T12:52:58.879Z,97579.22
2017-10-29T12:55:27.209Z,97572.47
2017-10-29T12:57:55.825Z,97580.33
2017-10-29T13:00:24.218Z,97591.16
2017-10-29T13:02:52.678Z,97601.92
2017-10-29T13:05:21.012Z,97625.14
2017-10-29T13:07:49.439Z,97638.64
2017-10-29T13:10:17.837Z,97659.59
2017-10-29T13:12:46.269Z,97657.12
2017-10-29T13:15:14.892Z,97650.36
2017-10-29T13:17:43.375Z,97653.16
2017-10-29T13:20:11.801Z,97668.13
2017-10-29T13:22:40.917Z,97659.91
2017-10-29T13:25:09.420Z,97672.59
2017-10-29T13:27:37.866Z,97673.73
2017-10-29T13:30:06.157Z,97678.90
2017-10-29T13:32:34.679Z,97668.51
2017-10-29T13:35:03.026Z,97676.30
2017-10-29T13:37:31.324Z,97682.41
2017-10-29T13:39:59.640Z,97677.74
2017-10-29T13:42:27.947Z,97670.47
2017-10-29T13:44:56.292Z,97670.92
2017-10-29T13:47:24.593Z,97677.63
2017-10-29T13:49:52.901Z,97676.58
2017-10-29T13:52:21.188Z,97679.06
2017-10-29T13:54:49.472Z,97689.31
2017-10-29T13:57:18.330Z,97688.06
2017-10-29T13:59:46.618Z,97694.05
2017-10-29T14:02:14.935Z,97716.72
2017-10-29T14:04:43.211Z,97698.06
2017-10-29T14:07:11.482Z,97710.23
2017-10-29T14:09:39.779Z,97728.67
2017-10-29T14:12:08.942Z,97724.77
2017-10-29T14:14:37.215Z,97717.84
2017-10-29T14:17:05.492Z,97723.34
2017-10-29T14:19:33.802Z,97731.14
2017-10-29T14:22:04.924Z,97729.31
2017-10-29T14:24:33.209Z,97724.14
2017-10-29T14:27:01.496Z,97720.55
2017-10-29T14:29:29.797Z,97714.30
2017-10-29T14:31:58.089Z,97720.65
2017-10-29T14:34:26.373Z,97718.45
2017-10-29T14:36:54.669Z,97748.62
2017-10-29T14:39:22.946Z,97733.16
2017-10-29T14:41:51.255Z,97745.67
2017-10-29T14:44:19.546Z,97723.36
2017-10-29T14:46:47.841Z,97734.62
2017-10-29T14:49:16.128Z,97747.23
2017-10-29T14:51:44.409Z,97730.91
2017-10-29T14:54:12.697Z,97745.41
2017-10-29T14:56:41.887Z,97752.84
2017-10-29T14:59:13.091Z,97757.78
2017-10-29T15:01:41.371Z,97772.33
2017-10-29T15:04:09.672Z,97765.00
2017-10-29T15:06:37.943Z,97775.52
2017-10-29T15:09:06.227Z,97775.66
2017-10-29T15:11:35.177Z,97770.18
2017-10-29T15:14:03.472Z,97774.00
2017-10-29T15:16:31.786Z,97772.49
2017-10-29T15:19:00.085Z,97788.95
2017-10-29T15:21:28.352Z,97801.75
2017-10-29T15:23:57.159Z,97813.34
2017-10-29T15:26:26.340Z,97808.66
2017-10-29T15:28:54.647Z,97814.61
2017-10-29T15:31:22.936Z,97817.17
2017-10-29T15:33:51.228Z,97821.01
2017-10-29T15:36:19.505Z,97828.17
2017-10-29T15:38:47.793Z,97843.84
2017-10-29T15:41:16.072Z,97848.45
2017-10-29T15:43:44.388Z,97837.06
2017-10-29T15:46:12.676Z,97837.11
2017-10-29T15:48:40.960Z,97844.29
2017-10-29T15:51:10.010Z,97842.97
2017-10-29T15:53:38.309Z,97848.52
2017-10-29T15:56:06.616Z,97848.58
2017-10-29T15:58:34.922Z,97849.02
2017-10-29T16:01:03.276Z,97852.41
2017-10-29T16:03:31.627Z,97860.34
2017-10-29T16:05:59.949Z,97863.76
2017-10-29T16:08:28.230Z,97867.24
2017-10-29T16:10:56.601Z,97874.08
2017-10-29T16:13:24.937Z,97885.03
2017-10-29T16:15:53.220Z,97887.69
2017-10-29T16:18:21.553Z,97893.17
2017-10-29T16:20:49.930Z,97898.28
2017-10-29T16:23:18.253Z,97900.84
2017-10-29T16:25:47.407Z,97907.62
2017-10-29T16:28:16.374Z,97916.52
2017-10-29T16:30:45.652Z,97916.57
2017-10-29T16:33:13.994Z,97929.84
2017-10-29T16:35:42.366Z,97932.35
2017-10-29T16:38:10.668Z,97937.47
2017-10-29T16:40:39.841Z,97954.88
2017-10-29T16:43:08.364Z,97956.51
2017-10-29T16:45:36.982Z,97941.64
2017-10-29T16:48:06.138Z,97937.42
2017-10-29T16:50:34.772Z,97944.98
2017-10-29T16:53:03.720Z,97954.67
2017-10-29T16:55:32.174Z,97966.55
2017-10-29T16:58:00.879Z,97976.42
2017-10-29T17:00:30.251Z,97987.48
2017-10-29T17:02:59.556Z,97988.19
2017-10-29T17:05:28.881Z,97983.98
2017-10-29T17:07:58.224Z,97988.19
2017-10-29T17:10:26.737Z,97986.96
2017-10-29T17:12:55.138Z,97980.29
2017-10-29T17:15:24.534Z,97984.59
2017-10-29T17:17:53.116Z,97990.55
2017-10-29T17:20:22.223Z,97993.56
2017-10-29T17:22:51.409Z,97997.83
2017-10-29T17:25:19.741Z,98005.06
2017-10-29T17:27:48.071Z,98002.88
2017-10-29T17:30:17.164Z,98003.72
2017-10-29T17:32:45.474Z,98014.05
2017-10-29T17:35:13.767Z,98018.73
2017-10-29T17:37:42.048Z,98022.19
2017-10-29T17:40:10.337Z,98023.45
2017-10-29T17:42:38.620Z,98031.53
2017-10-29T17:45:06.906Z,98033.59
2017-10-29T17:47:35.294Z,98031.44
2017-10-29T17:50:03.713Z,98031.45
2017-10-29T17:52:32.963Z,98028.00
2017-10-29T17:55:02.001Z,98036.66
2017-10-29T17:57:30.909Z,98055.34
2017-10-29T18:00:00.184Z,98061.73
2017-10-29T18:02:29.462Z,98053.18
2017-10-29T18:04:58.983Z,98062.06
2017-10-29T18:07:28.580Z,98063.81
2017-10-29T18:09:58.129Z,98078.59
2017-10-29T18:12:27.878Z,98070.20
2017-10-29T18:14:57.627Z,98077.77
2017-10-29T18:17:27.294Z,98081.23
2017-10-29T18:19:57.023Z,98084.20
2017-10-29T18:22:26.764Z,98092.20
2017-10-29T18:24:57.414Z,98085.05
2017-10-29T18:27:27.223Z,98078.65
2017-10-29T18:29:56.974Z,98088.84
2017-10-29T18:32:26.769Z,98092.31
2017-10-29T18:34:56.519Z,98089.34
2017-10-29T18:37:26.227Z,98102.14
2017-10-29T18:39:56.084Z,98102.14
2017-10-29T18:42:26.057Z,98092.23
2017-10-29T18:44:55.988Z,98108.08
2017-10-29T18:47:26.565Z,98104.67
2017-10-29T18:49:56.292Z,98113.17
2017-10-29T18:52:26.134Z,98106.71
2017-10-29T18:54:55.965Z,98109.22
2017-10-29T18:57:26.260Z,98119.58
2017-10-29T18:59:56.050Z,98125.06
2017-10-29T19:02:25.881Z,98135.22
2017-10-29T19:04:55.786Z,98141.66
2017-10-29T19:07:25.565Z,98132.27
2017-10-29T19:09:55.319Z,98137.87
2017-10-29T19:12:25.162Z,98138.74
2017-10-29T19:14:55.751Z,98149.30
2017-10-29T19:17:25.556Z,98146.73
2017-10-29T19:19:55.374Z,98144.75
2017-10-29T19:22:25.133Z,98134.95
2017-10-29T19:24:54.841Z,98125.57
2017-10-29T19:27:24.589Z,98134.03
2017-10-29T19:29:54.331Z,98139.16
2017-10-29T19:32:24.105Z,98139.66
2017-10-29T19:34:53.899Z,98139.56
2017-10-29T19:37:23.730Z,98137.15
2017-10-29T19:39:53.472Z,98141.70
2017-10-29T19:42:23.388Z,98139.92
2017-10-29T19:44:54.130Z,98144.62
2017-10-29T19:47:23.938Z,98142.55
2017-10-29T19:49:54.530Z,98150.14
2017-10-29T19:52:24.935Z,98157.11
2017-10-29T19:54:54.836Z,98155.38
2017-10-29T19:57:25.141Z,98152.12
2017-10-29T19:59:54.940Z,98151.80
2017-10-29T20:02:24.847Z,98161.35
2017-10-29T20:04:54.828Z,98171.00
2017-10-29T20:07:24.519Z,98169.77
2017-10-29T20:09:54.373Z,98168.75
2017-10-29T20:12:24.311Z,98175.08
2017-10-29T20:14:54.201Z,98177.88
2017-10-29T20:17:24.073Z,98180.47
2017-10-29T20:19:53.884Z,98175.27
2017-10-29T20:22:23.694Z,98182.17
2017-10-29T20:24:54.988Z,98186.43
2017-10-29T20:27:24.816Z,98192.38
2017-10-29T20:29:54.729Z,98196.62
2017-10-29T20:32:24.642Z,98190.23
2017-10-29T20:34:54.427Z,98191.11
2017-10-29T20:37:25.145Z,98191.94
2017-10-29T20:39:54.963Z,98185.98
2017-10-29T20:42:24.826Z,98181.38
2017-10-29T20:44:54.690Z,98190.64
2017-10-29T20:47:24.606Z,98199.14
2017-10-29T20:49:55.172Z,98198.71
2017-10-29T20:52:25.020Z,98197.94
2017-10-29T20:54:55.813Z,98197.55
2017-10-29T20:57:25.502Z,98198.17
2017-10-29T20:59:55.193Z,98203.97
2017-10-29T21:02:24.965Z,98202.73
2017-10-29T21:04:55.562Z,98204.30
2017-10-29T21:07:25.375Z,98207.81
2017-10-29T21:09:55.180Z,98213.60
2017-10-29T21:12:24.779Z,98225.64
2017-10-29T21:14:54.483Z,98209.37
2017-10-29T21:17:24.268Z,98206.34
2017-10-29T21:19:53.706Z,98204.74
2017-10-29T21:22:22.790Z,98211.88
2017-10-29T21:24:52.017Z,98217.01
2017-10-29T21:27:20.366Z,98217.84
2017-10-29T21:29:48.770Z,98223.70
2017-10-29T21:32:17.946Z,98232.66
2017-10-29T21:34:46.265Z,98226.49
2017-10-29T21:37:15.336Z,98225.41
2017-10-29T21:39:43.683Z,98231.50
2017-10-29T21:42:11.985Z,98233.20
2017-10-29T21:44:41.081Z,98245.22
2017-10-29T21:47:09.402Z,98245.98
2017-10-29T21:49:37.797Z,98236.20
2017-10-29T21:52:06.075Z,98243.36
2017-10-29T21:54:34.360Z,98251.49
2017-10-29T21:57:02.652Z,98253.02
2017-10-29T21:59:30.940Z,98247.61
2017-10-29T22:01:59.220Z,98258.03
2017-10-29T22:04:27.516Z,98243.47
2017-10-29T22:06:56.561Z,98246.81
2017-10-29T22:09:25.879Z,98250.95
2017-10-29T22:11:54.156Z,98251.67
2017-10-29T22:14:22.436Z,98248.88
2017-10-29T22:16:50.717Z,98251.02
2017-10-29T22:19:18.997Z,98256.54
2017-10-29T22:21:47.273Z,98254.16
2017-10-29T22:24:15.565Z,98244.52
2017-10-29T22:26:43.849Z,98249.48
2017-10-29T22:29:12.905Z,98258.63
2017-10-29T22:31:41.185Z,98255.02
2017-10-29T22:34:09.488Z,98251.62
2017-10-29T22:36:37.764Z,98247.19
2017-10-29T22:39:06.056Z,98251.80
2017-10-29T22:41:35.120Z,98249.03
2017-10-29T22:44:03.413Z,98261.25
2017-10-29T22:46:31.701Z,98257.08
2017-10-29T22:48:59.989Z,98260.90
2017-10-29T22:51:28.276Z,98269.57
2017-10-29T22:53:56.555Z,98273.58
2017-10-29T22:56:24.837Z,98263.02
2017-10-29T22:58:53.250Z,98260.02
2017-10-29T23:01:21.519Z,98260.90
2017-10-29T23:03:49.819Z,98265.82
2017-10-29T23:06:47.647Z,98261.50
2017-10-29T23:09:22.698Z,98256.78
2017-10-29T23:11:51.001Z,98254.87
2017-10-29T23:14:19.284Z,98263.48
2017-10-29T23:16:47.680Z,98267.17
2017-10-29T23:19:15.986Z,98261.19
2017-10-29T23:21:45.036Z,98264.16
2017-10-29T23:24:13.332Z,98265.39
2017-10-29T23:26:42.580Z,98278.57
2017-10-29T23:29:10.860Z,98277.76
2017-10-29T23:31:39.137Z,98284.67
2017-10-29T23:34:07.436Z,98276.76
2017-10-29T23:36:35.727Z,98285.55
2017-10-29T23:39:04.001Z,98278.80
2017-10-29T23:41:32.275Z,98282.82
2017-10-29T23:44:01.324Z,98276.98
2017-10-29T23:46:29.613Z,98284.63
2017-10-29T23:48:57.900Z,98292.21
2017-10-29T23:51:26.229Z,98292.48
2017-10-29T23:53:54.516Z,98294.34
2017-10-29T23:56:22.790Z,98297.77
2017-10-29T23:58:51.828Z,98297.06
